createdAt,value
2022-08-09T00:00:08.308Z,5.47
2022-08-09T00:02:42.773Z,6.32
2022-08-09T00:06:19.336Z,5.78
2022-08-09T00:08:01.453Z,5.53
2022-08-09T00:10:28.506Z,5.95
2022-08-09T00:12:55.378Z,6.20
2022-08-09T00:15:26.343Z,5.07
2022-08-09T00:18:10.477Z,4.70
2022-08-09T00:20:42.368Z,4.53
2022-08-09T00:23:57.920Z,5.35
2022-08-09T00:26:08.763Z,4.75
2022-08-09T00:28:38.746Z,4.43
2022-08-09T00:31:30.509Z,4.93
2022-08-09T00:33:54.150Z,4.20
2022-08-09T00:36:22.309Z,5.63
2022-08-09T00:38:54.860Z,5.50
2022-08-09T00:44:10.530Z,5.88
2022-08-09T00:44:25.723Z,5.95
2022-08-09T00:46:57.871Z,6.28
2022-08-09T00:49:31.795Z,6.15
2022-08-09T00:52:02.202Z,5.28
2022-08-09T00:54:36.464Z,5.07
2022-08-09T00:57:10.366Z,5.45
2022-08-09T00:59:46.355Z,5.63
2022-08-09T01:02:23.958Z,6.22
2022-08-09T01:05:05.440Z,6.13
2022-08-09T01:08:11.713Z,5.78
2022-08-09T01:10:41.215Z,6.03
2022-08-09T01:13:16.872Z,5.65
2022-08-09T01:15:51.804Z,5.38
2022-08-09T01:18:30.459Z,6.03
2022-08-09T01:21:17.538Z,5.15
2022-08-09T01:24:07.480Z,5.88
2022-08-09T01:27:05.868Z,5.03
2022-08-09T01:29:55.313Z,5.53
2022-08-09T01:32:32.514Z,6.15
2022-08-09T01:35:28.370Z,4.57
2022-08-09T01:38:09.870Z,5.15
2022-08-09T01:40:52.833Z,5.63
2022-08-09T01:43:42.145Z,5.05
2022-08-09T01:46:24.566Z,5.28
2022-08-09T01:48:55.665Z,6.07
2022-08-09T01:51:26.111Z,5.47
2022-08-09T01:53:58.118Z,5.40
2022-08-09T01:56:28.882Z,5.60
2022-08-09T01:58:57.652Z,5.50
2022-08-09T02:01:57.652Z,5.65
2022-08-09T02:04:16.692Z,5.30
2022-08-09T02:07:04.191Z,5.60
2022-08-09T02:09:42.337Z,4.95
2022-08-09T02:12:18.088Z,5.55
2022-08-09T02:14:51.823Z,4.35
2022-08-09T02:18:00.823Z,5.90
2022-08-09T02:20:11.436Z,5.15
2022-08-09T02:22:50.744Z,5.15
2022-08-09T02:25:24.906Z,5.88
2022-08-09T02:28:09.572Z,5.10
2022-08-09T02:30:46.442Z,6.72
2022-08-09T02:33:18.613Z,5.75
2022-08-09T02:36:03.162Z,6.18
2022-08-09T02:38:40.844Z,5.80
2022-08-09T02:41:19.603Z,5.45
2022-08-09T02:43:54.031Z,5.43
2022-08-09T02:46:27.404Z,5.95
2022-08-09T02:48:57.140Z,6.22
2022-08-09T02:51:26.535Z,5.88
2022-08-09T02:56:23.039Z,5.20
2022-08-09T02:58:51.552Z,5.95
2022-08-09T03:01:29.091Z,5.20
2022-08-09T03:04:17.914Z,6.28
2022-08-09T03:06:45.914Z,5.18
2022-08-09T03:09:17.787Z,5.47
2022-08-09T03:12:06.515Z,5.70
2022-08-09T03:14:33.898Z,5.53
2022-08-09T03:17:05.644Z,5.25
2022-08-09T03:19:57.811Z,6.30
2022-08-09T03:22:25.440Z,5.22
2022-08-09T03:25:05.870Z,5.93
2022-08-09T03:27:44.642Z,5.88
2022-08-09T03:30:14.205Z,5.95
2022-08-09T03:32:58.477Z,5.72
2022-08-09T03:36:11.615Z,5.85
2022-08-09T03:38:28.552Z,6.00
2022-08-09T03:40:56.582Z,6.05
2022-08-09T03:43:23.382Z,6.43
2022-08-09T03:46:13.592Z,5.88
2022-08-09T03:48:48.207Z,6.28
2022-08-09T03:51:57.277Z,6.60
2022-08-09T03:54:11.135Z,6.50
2022-08-09T03:56:41.340Z,6.03
2022-08-09T03:59:17.186Z,6.80
2022-08-09T04:01:50.471Z,5.30
2022-08-09T04:04:18.198Z,6.03
2022-08-09T04:06:49.069Z,5.80
2022-08-09T04:09:47.420Z,5.80
2022-08-09T04:12:11.808Z,6.45
2022-08-09T04:15:01.902Z,6.03
2022-08-09T04:17:38.301Z,6.53
2022-08-09T04:22:44.458Z,5.68
2022-08-09T04:25:12.881Z,6.60
2022-08-09T04:27:46.678Z,5.78
2022-08-09T04:30:23.489Z,6.55
2022-08-09T04:32:54.187Z,6.00
2022-08-09T04:35:21.814Z,5.80
2022-08-09T04:37:49.732Z,6.05
2022-08-09T04:40:19.577Z,5.75
2022-08-09T04:43:03.671Z,5.93
2022-08-09T04:45:31.041Z,6.32
2022-08-09T04:48:08.011Z,5.82
2022-08-09T04:50:38.165Z,5.53
2022-08-09T04:53:13.053Z,5.68
2022-08-09T04:55:52.343Z,5.45
2022-08-09T04:58:25.811Z,5.40
2022-08-09T05:00:54.529Z,6.05
2022-08-09T05:03:40.301Z,6.55
2022-08-09T05:06:09.801Z,6.03
2022-08-09T05:08:38.585Z,6.68
2022-08-09T05:11:06.722Z,6.13
2022-08-09T05:13:38.768Z,6.50
2022-08-09T05:16:10.243Z,6.15
2022-08-09T05:18:57.418Z,6.60
2022-08-09T05:21:24.856Z,5.70
2022-08-09T05:24:01.700Z,5.78
2022-08-09T05:26:36.629Z,5.82
2022-08-09T05:29:21.506Z,5.18
2022-08-09T05:31:56.248Z,5.68
2022-08-09T05:34:31.301Z,6.35
2022-08-09T05:37:06.273Z,5.22
2022-08-09T05:39:42.663Z,6.57
2022-08-09T05:42:21.445Z,5.47
2022-08-09T05:44:53.636Z,5.80
2022-08-09T05:47:27.299Z,5.32
2022-08-09T05:50:25.039Z,5.60
2022-08-09T05:52:53.519Z,5.30
2022-08-09T05:55:24.003Z,5.93
2022-08-09T05:57:56.337Z,5.90
2022-08-09T06:00:30.210Z,5.10
2022-08-09T06:02:59.372Z,5.10
2022-08-09T06:05:31.030Z,5.13
2022-08-09T06:08:19.534Z,5.75
2022-08-09T06:10:52.309Z,5.18
2022-08-09T06:13:20.261Z,4.63
2022-08-09T06:15:52.304Z,4.60
2022-08-09T06:20:57.713Z,5.05
2022-08-09T06:23:57.135Z,4.55
2022-08-09T06:26:14.424Z,4.82
2022-08-09T06:28:43.227Z,4.40
2022-08-09T06:31:10.765Z,4.70
2022-08-09T06:33:40.423Z,4.72
2022-08-09T06:36:08.618Z,3.67
2022-08-09T06:38:37.609Z,5.30
2022-08-09T06:41:12.418Z,4.07
2022-08-09T06:43:46.503Z,4.03
2022-08-09T06:46:40.302Z,4.22
2022-08-09T06:49:00.609Z,4.57
2022-08-09T06:51:28.039Z,4.10
2022-08-09T06:53:55.309Z,4.38
2022-08-09T06:56:30.660Z,4.35
2022-08-09T07:00:51.246Z,3.67
2022-08-09T07:01:54.470Z,3.70
2022-08-09T07:04:26.996Z,3.60
2022-08-09T07:07:00.688Z,3.60
2022-08-09T07:09:54.269Z,3.78
2022-08-09T07:12:18.651Z,2.78
2022-08-09T07:14:51.226Z,3.50
2022-08-09T07:17:21.747Z,3.03
2022-08-09T07:19:55.303Z,3.17
2022-08-09T07:22:34.396Z,3.53
2022-08-09T07:25:05.118Z,2.85
2022-08-09T07:27:43.291Z,3.03
2022-08-09T07:30:20.240Z,3.00
2022-08-09T07:32:48.857Z,2.53
2022-08-09T07:35:19.156Z,2.97
2022-08-09T07:37:46.276Z,2.72
2022-08-09T07:40:20.765Z,3.05
2022-08-09T07:43:00.041Z,2.35
2022-08-09T07:45:39.882Z,2.10
2022-08-09T07:48:25.825Z,2.08
2022-08-09T07:51:09.601Z,1.55
2022-08-09T07:54:07.731Z,2.30
2022-08-09T07:56:44.755Z,1.55
2022-08-09T07:59:25.154Z,1.80
2022-08-09T08:01:55.734Z,1.80
2022-08-09T08:04:31.680Z,1.77
2022-08-09T08:07:09.417Z,2.10
2022-08-09T08:09:53.587Z,2.47
2022-08-09T08:12:27.943Z,1.98
2022-08-09T08:14:57.217Z,1.90
2022-08-09T08:17:35.412Z,2.05
2022-08-09T08:20:12.854Z,1.90
2022-08-09T08:22:40.697Z,1.85
2022-08-09T08:25:09.476Z,2.03
2022-08-09T08:27:43.044Z,1.60
2022-08-09T08:30:11.891Z,1.65
2022-08-09T08:32:52.340Z,1.85
2022-08-09T08:35:22.151Z,1.58
2022-08-09T08:37:59.412Z,1.52
2022-08-09T08:40:33.209Z,1.40
2022-08-09T08:43:03.108Z,1.58
2022-08-09T08:45:53.625Z,2.00
2022-08-09T08:48:31.338Z,1.40
2022-08-09T08:50:58.801Z,1.50
2022-08-09T08:56:02.369Z,1.30
2022-08-09T08:58:32.272Z,1.10
2022-08-09T09:01:08.724Z,1.30
2022-08-09T09:03:47.538Z,1.35
2022-08-09T09:06:18.385Z,1.23
2022-08-09T09:08:52.526Z,1.45
2022-08-09T09:11:20.524Z,1.08
2022-08-09T09:13:57.300Z,1.05
2022-08-09T09:16:32.448Z,1.23
2022-08-09T09:19:40.398Z,0.90
2022-08-09T09:21:58.331Z,0.70
2022-08-09T09:24:29.437Z,0.60
2022-08-09T09:26:59.022Z,0.98
2022-08-09T09:30:08.339Z,0.70
2022-08-09T09:32:34.755Z,0.80
2022-08-09T09:35:09.057Z,0.73
2022-08-09T09:37:40.930Z,0.82
2022-08-09T09:40:09.388Z,0.63
2022-08-09T09:42:36.361Z,1.10
2022-08-09T09:45:08.234Z,0.90
2022-08-09T09:50:23.104Z,1.05
2022-08-09T09:52:56.071Z,0.98
2022-08-09T09:55:32.507Z,0.63
2022-08-09T09:58:18.682Z,0.80
2022-08-09T10:00:58.842Z,0.93
2022-08-09T10:03:42.963Z,1.00
2022-08-09T10:06:11.686Z,1.17
2022-08-09T10:08:42.682Z,1.17
2022-08-09T10:12:00.132Z,1.05
2022-08-09T10:14:33.553Z,0.85
2022-08-09T10:17:50.609Z,0.63
2022-08-09T10:20:00.855Z,0.70
2022-08-09T10:22:39.048Z,1.05
2022-08-09T10:25:11.680Z,0.70
2022-08-09T10:27:55.910Z,0.90
2022-08-09T10:34:04.229Z,0.80
2022-08-09T10:36:00.840Z,0.70
2022-08-09T10:38:43.258Z,0.80
2022-08-09T10:41:17.955Z,0.60
2022-08-09T10:43:58.860Z,0.63
2022-08-09T10:46:55.624Z,0.73
2022-08-09T10:49:50.150Z,0.70
2022-08-09T10:52:33.680Z,0.50
2022-08-09T10:55:22.796Z,0.68
2022-08-09T10:57:52.033Z,0.52
2022-08-09T11:01:11.175Z,0.70
2022-08-09T11:03:49.916Z,0.80
2022-08-09T11:06:18.782Z,0.60
2022-08-09T11:08:50.976Z,0.90
2022-08-09T11:11:19.769Z,0.70
2022-08-09T11:13:50.296Z,0.70
2022-08-09T11:16:37.079Z,0.60
2022-08-09T11:19:10.383Z,0.63
2022-08-09T11:22:05.091Z,0.65
2022-08-09T11:25:08.302Z,0.60
2022-08-09T11:28:07.936Z,0.90
2022-08-09T11:30:32.402Z,0.75
2022-08-09T11:33:19.150Z,0.65
2022-08-09T11:35:53.357Z,0.80
2022-08-09T11:38:33.166Z,0.70
2022-08-09T11:41:13.767Z,1.20
2022-08-09T11:43:48.899Z,0.73
2022-08-09T11:46:18.657Z,0.90
2022-08-09T11:49:05.429Z,0.90
2022-08-09T11:53:02.720Z,1.05
2022-08-09T11:55:51.634Z,0.82
2022-08-09T11:58:15.438Z,0.65
2022-08-09T12:00:52.940Z,0.90
2022-08-09T12:03:55.679Z,1.08
2022-08-09T12:06:26.766Z,0.80
2022-08-09T12:09:01.227Z,0.73
2022-08-09T12:11:29.314Z,0.70
2022-08-09T12:14:28.681Z,0.70
2022-08-09T12:16:56.376Z,0.73
2022-08-09T12:19:32.201Z,1.15
2022-08-09T12:22:07.104Z,0.70
2022-08-09T12:24:37.266Z,0.70
2022-08-09T12:29:09.709Z,0.95
2022-08-09T12:30:01.478Z,0.82
2022-08-09T12:32:44.258Z,1.08
2022-08-09T12:35:13.427Z,1.00
2022-08-09T12:37:51.701Z,0.90
2022-08-09T12:40:21.269Z,0.88
2022-08-09T12:42:50.933Z,0.73
2022-08-09T12:45:33.855Z,1.23
2022-08-09T12:48:11.062Z,0.82
2022-08-09T12:50:54.040Z,0.80
2022-08-09T12:53:37.125Z,0.88
2022-08-09T12:56:43.358Z,0.80
2022-08-09T12:59:22.262Z,0.68
2022-08-09T13:02:09.643Z,0.80
2022-08-09T13:04:38.774Z,0.80
2022-08-09T13:07:19.825Z,0.93
2022-08-09T13:10:02.675Z,0.90
2022-08-09T13:12:29.639Z,0.82
2022-08-09T13:15:07.704Z,0.88
2022-08-09T13:18:03.744Z,0.88
2022-08-09T13:20:37.224Z,0.55
2022-08-09T13:24:17.459Z,0.75
2022-08-09T13:26:05.412Z,0.80
2022-08-09T13:28:34.362Z,0.73
2022-08-09T13:32:14.142Z,0.90
2022-08-09T13:33:56.794Z,0.95
2022-08-09T13:36:41.110Z,1.30
2022-08-09T13:41:19.374Z,0.73
2022-08-09T13:42:11.977Z,0.80
2022-08-09T13:44:42.207Z,1.00
2022-08-09T13:47:33.753Z,0.70
2022-08-09T13:50:18.299Z,0.88
2022-08-09T13:52:57.748Z,0.93
2022-08-09T13:55:24.626Z,0.60
2022-08-09T13:57:58.473Z,0.60
2022-08-09T14:00:28.979Z,0.93
2022-08-09T14:03:04.013Z,0.60
2022-08-09T14:05:58.520Z,0.88
2022-08-09T14:08:29.746Z,0.50
2022-08-09T14:10:56.964Z,0.70
2022-08-09T14:14:15.698Z,1.05
2022-08-09T14:16:28.427Z,0.50
2022-08-09T14:18:55.852Z,1.00
2022-08-09T14:21:25.707Z,0.80
2022-08-09T14:26:32.090Z,0.70
2022-08-09T14:29:03.327Z,0.73
2022-08-09T14:31:36.207Z,0.83
2022-08-09T14:34:17.657Z,0.73
2022-08-09T14:36:55.190Z,1.08
2022-08-09T14:39:22.120Z,0.75
2022-08-09T14:42:08.915Z,0.57
2022-08-09T14:44:59.101Z,0.63
2022-08-09T14:47:41.224Z,1.02
2022-08-09T14:50:10.995Z,0.65
2022-08-09T14:52:38.237Z,0.85
2022-08-09T14:57:43.466Z,0.70
2022-08-09T15:00:11.873Z,1.05
2022-08-09T15:02:38.843Z,0.60
2022-08-09T15:05:07.602Z,0.60
2022-08-09T15:07:35.078Z,0.65
2022-08-09T15:10:11.130Z,0.65
2022-08-09T15:12:44.918Z,0.70
2022-08-09T15:15:13.217Z,0.50
2022-08-09T15:17:42.649Z,0.70
2022-08-09T15:20:15.354Z,3.17
2022-08-09T15:24:01.873Z,1.17
2022-08-09T15:25:52.805Z,1.80
2022-08-09T15:28:26.457Z,1.67
2022-08-09T15:31:08.786Z,1.35
2022-08-09T15:34:32.269Z,0.90
2022-08-09T15:36:28.877Z,1.20
2022-08-09T15:38:57.880Z,1.55
2022-08-09T15:41:32.186Z,1.38
2022-08-09T15:44:03.796Z,1.33
2022-08-09T15:46:34.143Z,1.15
2022-08-09T15:49:21.309Z,1.70
2022-08-09T15:52:05.259Z,1.23
2022-08-09T15:54:44.570Z,1.02
2022-08-09T15:57:33.816Z,1.85
2022-08-09T16:00:14.119Z,1.50
2022-08-09T16:02:53.502Z,1.42
2022-08-09T16:05:23.346Z,0.80
2022-08-09T16:07:50.747Z,0.82
2022-08-09T16:10:55.138Z,0.70
2022-08-09T16:13:18.959Z,0.73
2022-08-09T16:16:10.912Z,0.70
2022-08-09T16:18:45.260Z,1.25
2022-08-09T16:21:17.533Z,0.65
2022-08-09T16:23:58.634Z,0.87
2022-08-09T16:26:35.126Z,0.60
2022-08-09T16:29:12.561Z,0.60
2022-08-09T16:32:19.002Z,0.52
2022-08-09T16:34:44.844Z,1.00
2022-08-09T16:37:50.587Z,0.60
2022-08-09T16:40:08.460Z,0.63
2022-08-09T16:42:35.769Z,1.02
2022-08-09T16:45:04.185Z,0.60
2022-08-09T16:48:42.030Z,0.60
2022-08-09T16:50:31.546Z,1.00
2022-08-09T16:53:01.924Z,0.77
2022-08-09T16:55:44.228Z,1.17
2022-08-09T16:58:16.978Z,1.00
2022-08-09T17:00:44.111Z,0.70
2022-08-09T17:03:22.322Z,1.27
2022-08-09T17:06:06.854Z,0.70
2022-08-09T17:08:44.321Z,0.88
2022-08-09T17:11:24.498Z,1.08
2022-08-09T17:14:01.294Z,0.82
2022-08-09T17:16:29.355Z,0.68
2022-08-09T17:18:56.663Z,0.90
2022-08-09T17:21:25.311Z,0.70
2022-08-09T17:24:27.186Z,0.55
2022-08-09T17:26:43.247Z,0.73
2022-08-09T17:29:20.564Z,0.98
2022-08-09T17:31:49.320Z,0.60
2022-08-09T17:35:00.536Z,1.05
2022-08-09T17:37:04.176Z,1.13
2022-08-09T17:39:52.989Z,1.08
2022-08-09T17:42:41.258Z,0.90
2022-08-09T17:45:06.486Z,0.80
2022-08-09T17:47:49.373Z,0.70
2022-08-09T17:50:36.408Z,1.00
2022-08-09T17:53:19.427Z,0.50
2022-08-09T17:55:54.155Z,0.65
2022-08-09T17:58:22.255Z,0.80
2022-08-09T18:03:24.156Z,1.27
2022-08-09T18:05:53.274Z,1.20
2022-08-09T18:08:21.851Z,0.75
2022-08-09T18:11:01.053Z,0.75
2022-08-09T18:13:40.038Z,0.63
2022-08-09T18:16:17.110Z,0.60
2022-08-09T18:18:57.164Z,0.77
2022-08-09T18:21:26.212Z,0.80
2022-08-09T18:24:12.454Z,0.63
2022-08-09T18:26:46.665Z,0.65
2022-08-09T18:30:35.828Z,0.57
2022-08-09T18:32:07.356Z,0.77
2022-08-09T18:34:35.636Z,0.70
2022-08-09T18:37:10.566Z,0.85
2022-08-09T18:39:53.593Z,0.77
2022-08-09T18:42:28.232Z,0.90
2022-08-09T18:44:57.129Z,0.65
2022-08-09T18:47:32.792Z,0.57
2022-08-09T18:50:06.180Z,0.90
2022-08-09T18:52:36.756Z,0.55
2022-08-09T18:55:05.151Z,0.90
2022-08-09T18:57:43.102Z,0.60
2022-08-09T19:00:12.117Z,0.98
2022-08-09T19:02:48.490Z,0.52
2022-08-09T19:05:28.549Z,0.73
2022-08-09T19:08:10.601Z,0.70
2022-08-09T19:10:41.289Z,1.10
2022-08-09T19:13:20.526Z,0.80
2022-08-09T19:15:51.658Z,1.13
2022-08-09T19:18:35.030Z,0.93
2022-08-09T19:21:10.430Z,1.10
2022-08-09T19:24:33.078Z,0.98
2022-08-09T19:26:34.817Z,0.80
2022-08-09T19:29:09.398Z,0.80
2022-08-09T19:31:45.153Z,0.88
2022-08-09T19:34:21.798Z,1.20
2022-08-09T19:36:51.863Z,0.90
2022-08-09T19:39:20.978Z,0.70
2022-08-09T19:42:06.587Z,0.90
2022-08-09T19:44:34.148Z,0.80
2022-08-09T19:47:02.044Z,1.08
2022-08-09T19:50:10.139Z,0.70
2022-08-09T19:52:15.987Z,0.70
2022-08-09T19:54:45.327Z,0.70
2022-08-09T19:57:12.419Z,0.60
2022-08-09T20:00:00.049Z,0.80
2022-08-09T20:04:07.249Z,1.00
2022-08-09T20:05:14.957Z,0.98
2022-08-09T20:07:58.718Z,0.82
2022-08-09T20:10:34.473Z,0.68
2022-08-09T20:13:07.933Z,1.38
2022-08-09T20:16:33.209Z,1.33
2022-08-09T20:18:27.657Z,0.88
2022-08-09T20:20:56.068Z,0.90
2022-08-09T20:23:23.913Z,0.70
2022-08-09T20:25:53.599Z,0.50
2022-08-09T20:28:27.624Z,0.95
2022-08-09T20:31:04.513Z,1.25
2022-08-09T20:33:41.263Z,1.27
2022-08-09T20:36:12.080Z,0.82
2022-08-09T20:39:18.793Z,0.90
2022-08-09T20:41:32.144Z,1.02
2022-08-09T20:44:03.288Z,0.90
2022-08-09T20:46:42.386Z,2.28
2022-08-09T20:49:11.593Z,0.90
2022-08-09T20:51:41.320Z,1.42
2022-08-09T20:54:12.774Z,1.13
2022-08-09T20:56:46.914Z,1.00
2022-08-09T20:59:17.067Z,0.90
2022-08-09T21:01:51.018Z,1.10
2022-08-09T21:05:52.594Z,1.20
2022-08-09T21:07:13.171Z,1.23
2022-08-09T21:09:56.951Z,1.30
2022-08-09T21:15:14.782Z,0.95
2022-08-09T21:18:21.688Z,1.23
2022-08-09T21:20:30.882Z,1.27
2022-08-09T21:22:59.265Z,1.30
2022-08-09T21:25:55.937Z,1.15
2022-08-09T21:28:34.656Z,1.20
2022-08-09T21:31:16.597Z,1.00
2022-08-09T21:33:51.746Z,1.10
2022-08-09T21:36:29.171Z,1.30
2022-08-09T21:38:59.289Z,1.40
2022-08-09T21:42:04.554Z,1.80
2022-08-09T21:44:34.580Z,1.35
2022-08-09T21:47:08.814Z,1.05
2022-08-09T21:49:43.334Z,1.40
2022-08-09T21:52:14.704Z,1.48
2022-08-09T21:54:50.792Z,1.35
2022-08-09T21:57:25.476Z,1.60
2022-08-09T22:00:35.885Z,1.10
2022-08-09T22:03:06.284Z,1.17
2022-08-09T22:05:37.077Z,1.10
2022-08-09T22:08:13.850Z,1.17
2022-08-09T22:11:49.056Z,1.10
2022-08-09T22:13:33.943Z,1.00
2022-08-09T22:16:07.817Z,1.05
2022-08-09T22:18:37.436Z,1.02
2022-08-09T22:21:09.293Z,1.10
2022-08-09T22:23:58.957Z,1.30
2022-08-09T22:26:35.207Z,1.33
2022-08-09T22:29:09.314Z,1.08
2022-08-09T22:34:25.515Z,1.40
2022-08-09T22:36:53.823Z,1.27
2022-08-09T22:39:56.306Z,1.27
2022-08-09T22:42:21.896Z,1.25
2022-08-09T22:45:05.141Z,1.10
2022-08-09T22:48:14.400Z,1.23
2022-08-09T22:50:30.471Z,1.30
2022-08-09T22:52:58.735Z,1.15
2022-08-09T22:55:39.479Z,1.00
2022-08-09T22:58:30.881Z,1.10
2022-08-09T23:01:05.651Z,1.65
2022-08-09T23:04:03.356Z,1.40
2022-08-09T23:06:32.603Z,1.27
2022-08-09T23:11:30.256Z,1.60
2022-08-09T23:13:59.749Z,1.63
2022-08-09T23:16:27.168Z,1.77
2022-08-09T23:18:54.212Z,1.80
2022-08-09T23:21:26.099Z,1.92
2022-08-09T23:24:05.572Z,2.40
2022-08-09T23:26:35.072Z,1.80
2022-08-09T23:29:01.920Z,2.00
2022-08-09T23:31:28.786Z,2.08
2022-08-09T23:33:55.592Z,2.15
2022-08-09T23:36:22.436Z,1.98
2022-08-09T23:38:49.596Z,2.05
2022-08-09T23:41:27.919Z,1.95
2022-08-09T23:44:00.072Z,2.28
2022-08-09T23:46:28.540Z,2.23
2022-08-09T23:48:55.765Z,2.17
2022-08-09T23:51:22.844Z,3.28
2022-08-09T23:53:50.585Z,2.58
2022-08-09T23:56:53.082Z,2.47
2022-08-09T23:59:10.161Z,2.72
